createdAt,value
2023-01-27T00:03:11.505Z,19.65
2023-01-27T00:08:11.171Z,19.17
2023-01-27T00:13:28.976Z,19.20
2023-01-27T00:18:27.211Z,17.90
2023-01-27T00:23:44.870Z,19.80
2023-01-27T00:28:43.725Z,20.25
2023-01-27T00:33:45.935Z,19.40
2023-01-27T00:38:45.488Z,20.38
2023-01-27T00:43:43.661Z,18.45
2023-01-27T00:48:41.797Z,18.17
2023-01-27T00:53:39.999Z,18.60
2023-01-27T00:58:39.774Z,19.83
2023-01-27T01:03:38.407Z,19.30
2023-01-27T01:08:37.349Z,19.88
2023-01-27T01:13:36.178Z,17.25
2023-01-27T01:18:35.925Z,17.30
2023-01-27T01:23:34.591Z,17.38
2023-01-27T01:28:32.908Z,17.00
2023-01-27T01:33:31.087Z,17.65
2023-01-27T01:38:30.899Z,18.23
2023-01-27T01:43:29.012Z,16.13
2023-01-27T01:48:35.208Z,15.40
2023-01-27T01:53:37.045Z,15.02
2023-01-27T01:58:35.941Z,14.50
2023-01-27T02:03:35.232Z,15.00
2023-01-27T02:08:37.926Z,15.70
2023-01-27T02:13:37.466Z,12.32
2023-01-27T02:18:35.590Z,14.20
2023-01-27T02:23:42.636Z,11.88
2023-01-27T02:28:42.925Z,13.07
2023-01-27T02:33:41.102Z,12.30
2023-01-27T02:38:41.293Z,11.43
2023-01-27T02:43:39.754Z,11.45
2023-01-27T02:48:39.704Z,12.32
2023-01-27T02:53:38.517Z,11.73
2023-01-27T02:58:36.737Z,11.80
2023-01-27T03:03:52.504Z,14.27
2023-01-27T03:08:51.052Z,10.85
2023-01-27T03:13:49.273Z,11.43
2023-01-27T03:18:49.728Z,10.65
2023-01-27T03:23:50.665Z,10.95
2023-01-27T03:29:13.764Z,9.88
2023-01-27T03:34:15.139Z,10.65
2023-01-27T03:39:38.774Z,11.75
2023-01-27T03:44:54.448Z,11.60
2023-01-27T03:49:52.582Z,10.88
2023-01-27T03:54:52.057Z,13.95
2023-01-27T03:59:50.209Z,11.73
2023-01-27T04:05:05.676Z,12.07
2023-01-27T04:10:05.764Z,14.38
2023-01-27T04:15:04.119Z,15.20
2023-01-27T04:20:02.332Z,14.68
2023-01-27T04:25:00.478Z,14.40
2023-01-27T04:30:00.518Z,16.40
2023-01-27T04:34:58.651Z,16.55
2023-01-27T04:39:56.792Z,15.77
2023-01-27T04:44:54.931Z,14.73
2023-01-27T04:49:54.471Z,14.30
2023-01-27T04:54:52.650Z,13.48
2023-01-27T04:59:51.153Z,14.43
2023-01-27T05:04:49.293Z,12.98
2023-01-27T05:09:48.775Z,15.65
2023-01-27T05:14:46.909Z,15.93
2023-01-27T05:19:45.427Z,13.25
2023-01-27T05:24:43.685Z,13.60
2023-01-27T05:29:45.167Z,13.68
2023-01-27T05:34:43.368Z,15.02
2023-01-27T05:39:41.552Z,18.35
2023-01-27T05:44:39.732Z,17.05
2023-01-27T05:49:39.224Z,21.38
2023-01-27T05:54:37.409Z,17.73
2023-01-27T05:59:35.560Z,19.88
2023-01-27T06:04:33.712Z,17.48
2023-01-27T06:09:33.212Z,19.35
2023-01-27T06:14:31.347Z,24.48
2023-01-27T06:19:29.519Z,20.20
2023-01-27T06:24:27.688Z,21.67
2023-01-27T06:29:27.248Z,20.30
2023-01-27T06:34:25.645Z,18.65
2023-01-27T06:39:23.787Z,24.42
2023-01-27T06:44:21.972Z,19.10
2023-01-27T06:49:21.452Z,18.95
2023-01-27T06:54:19.589Z,18.48
2023-01-27T06:59:18.000Z,17.23
2023-01-27T07:04:16.146Z,18.75
2023-01-27T07:09:15.780Z,17.48
2023-01-27T07:14:13.920Z,16.05
2023-01-27T07:19:12.655Z,15.73
2023-01-27T07:24:10.910Z,16.52
2023-01-27T07:29:11.024Z,16.00
2023-01-27T07:34:09.281Z,17.00
2023-01-27T07:39:07.458Z,15.88
2023-01-27T07:44:05.783Z,18.15
2023-01-27T07:49:06.640Z,20.17
2023-01-27T07:54:05.528Z,16.85
2023-01-27T07:59:04.062Z,16.13
2023-01-27T08:04:02.181Z,27.95
2023-01-27T08:09:01.713Z,15.00
2023-01-27T08:20:46.123Z,15.05
2023-01-27T08:25:50.073Z,16.08
2023-01-27T08:30:48.586Z,14.43
2023-01-27T08:35:46.796Z,16.45
2023-01-27T08:40:45.530Z,14.77
2023-01-27T08:45:46.693Z,15.18
2023-01-27T08:50:45.005Z,15.95
2023-01-27T08:55:43.184Z,15.63
2023-01-27T09:00:41.536Z,14.82
2023-01-27T09:05:41.553Z,15.50
2023-01-27T09:10:40.635Z,16.35
2023-01-27T09:15:39.124Z,17.85
2023-01-27T09:20:37.497Z,13.50
2023-01-27T09:25:37.105Z,13.15
2023-01-27T09:30:35.311Z,13.82
2023-01-27T09:35:37.477Z,11.93
2023-01-27T09:40:45.062Z,10.52
2023-01-27T09:45:51.181Z,11.63
2023-01-27T09:50:52.961Z,11.88
2023-01-27T09:55:59.146Z,11.60
2023-01-27T10:01:01.642Z,11.55
2023-01-27T10:06:17.093Z,15.10
2023-01-27T10:11:20.658Z,10.18
2023-01-27T10:16:25.118Z,12.98
2023-01-27T10:21:29.108Z,13.73
2023-01-27T10:26:31.867Z,12.73
2023-01-27T10:31:34.244Z,11.27
2023-01-27T10:36:39.260Z,11.88
2023-01-27T10:41:44.861Z,14.45
2023-01-27T10:46:47.515Z,11.50
2023-01-27T10:51:50.764Z,10.40
2023-01-27T10:56:52.585Z,12.18
2023-01-27T11:01:52.699Z,12.98
2023-01-27T11:06:51.270Z,11.90
2023-01-27T11:11:51.295Z,18.38
2023-01-27T11:16:50.916Z,22.75
2023-01-27T11:22:01.691Z,15.48
2023-01-27T11:27:10.593Z,15.80
2023-01-27T11:32:14.600Z,11.50
2023-01-27T11:37:18.572Z,15.25
2023-01-27T11:42:18.314Z,11.70
2023-01-27T11:47:19.135Z,16.13
2023-01-27T11:52:19.109Z,15.27
2023-01-27T11:57:19.772Z,16.48
2023-01-27T12:02:23.745Z,13.88
2023-01-27T12:07:26.389Z,12.63
2023-01-27T12:12:27.099Z,12.15
2023-01-27T12:17:27.773Z,14.98
2023-01-27T12:22:27.501Z,13.43
2023-01-27T12:27:28.634Z,12.18
2023-01-27T12:32:34.672Z,12.73
2023-01-27T12:37:34.982Z,11.50
2023-01-27T12:42:41.653Z,13.43
2023-01-27T12:47:42.540Z,12.30
2023-01-27T12:52:40.672Z,13.13
2023-01-27T12:57:44.144Z,10.60
2023-01-27T13:02:42.436Z,19.35
2023-01-27T13:07:43.065Z,15.57
2023-01-27T13:12:49.664Z,15.02
2023-01-27T13:17:49.039Z,28.35
2023-01-27T13:22:48.707Z,15.80
2023-01-27T13:27:48.074Z,17.73
2023-01-27T13:32:49.545Z,21.85
2023-01-27T13:37:50.009Z,26.70
2023-01-27T13:42:50.034Z,47.10
2023-01-27T13:47:52.108Z,21.90
2023-01-27T13:52:52.091Z,19.00
2023-01-27T13:57:55.600Z,22.05
2023-01-27T14:03:03.754Z,21.98
2023-01-27T14:08:08.146Z,17.33
2023-01-27T14:13:11.157Z,22.50
2023-01-27T14:18:15.278Z,19.95
2023-01-27T14:23:28.496Z,19.92
2023-01-27T14:28:32.800Z,40.80
2023-01-27T14:33:39.406Z,37.40
2023-01-27T14:38:41.715Z,32.08
2023-01-27T14:43:43.831Z,27.67
2023-01-27T14:48:51.863Z,52.15
2023-01-27T14:53:59.186Z,37.60
2023-01-27T14:59:01.118Z,32.45
2023-01-27T15:04:11.981Z,49.03
2023-01-27T15:09:13.236Z,23.13
2023-01-27T15:14:22.147Z,20.83
2023-01-27T15:19:32.092Z,57.75
2023-01-27T15:24:38.371Z,37.95
2023-01-27T15:29:36.741Z,30.00
2023-01-27T15:34:36.249Z,16.55
2023-01-27T15:39:59.251Z,45.85
2023-01-27T15:45:02.691Z,39.45
2023-01-27T15:50:15.857Z,30.60
2023-01-27T15:55:24.568Z,22.15
2023-01-27T16:00:26.435Z,34.20
2023-01-27T16:05:26.958Z,33.88
2023-01-27T16:10:25.904Z,29.77
2023-01-27T16:15:31.986Z,53.63
2023-01-27T16:20:32.101Z,31.75
2023-01-27T16:25:32.728Z,31.30
2023-01-27T16:30:32.513Z,32.40
2023-01-27T16:35:33.110Z,31.65
2023-01-27T16:40:32.408Z,28.88
2023-01-27T16:45:34.767Z,39.88
2023-01-27T16:50:35.975Z,36.05
2023-01-27T16:55:34.107Z,42.92
2023-01-27T17:00:34.081Z,41.80
2023-01-27T17:05:32.285Z,69.22
2023-01-27T17:10:35.670Z,53.53
2023-01-27T17:15:37.600Z,26.83
2023-01-27T17:20:37.243Z,28.45
2023-01-27T17:25:38.041Z,42.08
2023-01-27T17:30:40.533Z,61.65
2023-01-27T17:35:39.984Z,33.55
2023-01-27T17:40:41.086Z,44.15
2023-01-27T17:45:39.822Z,17.38
2023-01-27T17:50:39.123Z,27.40
2023-01-27T17:55:38.145Z,26.30
2023-01-27T18:00:40.914Z,35.45
2023-01-27T18:05:39.522Z,33.05
2023-01-27T18:10:39.090Z,35.58
2023-01-27T18:15:44.094Z,50.97
2023-01-27T18:20:43.760Z,31.85
2023-01-27T18:25:51.340Z,29.45
2023-01-27T18:30:51.988Z,35.97
2023-01-27T18:35:58.098Z,21.88
2023-01-27T18:41:09.729Z,41.08
2023-01-27T18:46:12.371Z,31.05
2023-01-27T18:51:14.672Z,20.95
2023-01-27T18:56:16.713Z,21.80
2023-01-27T19:01:21.019Z,19.20
2023-01-27T19:06:22.499Z,22.08
2023-01-27T19:11:21.883Z,45.83
2023-01-27T19:16:23.411Z,37.60
2023-01-27T19:21:22.672Z,53.63
2023-01-27T19:26:23.277Z,44.38
2023-01-27T19:31:23.893Z,40.00
2023-01-27T19:36:24.517Z,38.88
2023-01-27T19:41:23.027Z,43.47
2023-01-27T19:46:22.190Z,24.58
2023-01-27T19:51:22.014Z,37.47
2023-01-27T19:56:21.598Z,23.73
2023-01-27T20:01:21.105Z,23.73
2023-01-27T20:06:22.587Z,24.00
2023-01-27T20:11:30.268Z,29.35
2023-01-27T20:16:29.481Z,29.00
2023-01-27T20:21:31.395Z,40.40
2023-01-27T20:26:31.404Z,49.05
2023-01-27T20:31:29.830Z,32.05
2023-01-27T20:36:29.542Z,19.40
2023-01-27T20:41:27.698Z,14.90
2023-01-27T20:46:27.027Z,25.27
2023-01-27T20:51:25.192Z,22.58
2023-01-27T20:56:24.845Z,19.02
2023-01-27T21:01:23.711Z,20.05
2023-01-27T21:06:21.897Z,21.35
2023-01-27T21:11:21.345Z,26.48
2023-01-27T21:16:21.297Z,17.48
2023-01-27T21:21:23.638Z,18.65
2023-01-27T21:26:21.917Z,20.05
2023-01-27T21:31:22.531Z,19.77
2023-01-27T21:36:20.785Z,18.02
2023-01-27T21:41:45.925Z,28.35
2023-01-27T21:46:45.492Z,19.42
2023-01-27T21:51:43.695Z,21.40
2023-01-27T21:56:41.817Z,21.95
2023-01-27T22:01:39.970Z,17.63
2023-01-27T22:06:39.526Z,16.33
2023-01-27T22:11:37.722Z,16.00
2023-01-27T22:16:35.898Z,17.23
2023-01-27T22:21:34.033Z,18.65
2023-01-27T22:26:35.124Z,14.23
2023-01-27T22:31:33.278Z,27.48
2023-01-27T22:36:31.444Z,15.80
2023-01-27T22:41:29.831Z,14.65
2023-01-27T22:46:29.300Z,15.82
2023-01-27T22:51:27.422Z,16.38
2023-01-27T22:56:25.569Z,20.25
2023-01-27T23:01:23.795Z,13.60
2023-01-27T23:06:23.299Z,14.30
2023-01-27T23:11:21.459Z,14.90
2023-01-27T23:16:19.650Z,16.65
2023-01-27T23:21:20.455Z,14.77
2023-01-27T23:26:21.449Z,20.77
2023-01-27T23:31:19.732Z,17.15
2023-01-27T23:36:17.991Z,18.92
2023-01-27T23:41:18.495Z,19.65
2023-01-27T23:46:18.130Z,15.93
2023-01-27T23:51:16.305Z,18.80
2023-01-27T23:56:14.701Z,16.48
